Flight Track Log - Related Links

Times and Time Zones

All times are in EDT time to prevent confusion due to time zone crossing. See the EJA396 flight status page for this flight to view local times or setup timezone preferences in your user account.

Time Position Orientation Groundspeed Altitude Reporting Facility
EDT Latitude Longitude Course Direction KTS MPH feet Rate Location/Type
Mon 01:55:55 PM 44.5211 -73.2522 196° South 234 269 6,700  Level Boston Center
Mon 01:56:55 PM 44.4686 -73.2836 203° Southwest 227 261 9,900 3,150 Climbing Boston Center
Mon 01:57:55 PM 44.3831 -73.3231 198° South 288 331 13,000 3,750 Climbing Boston Center
Mon 01:58:55 PM 44.3075 -73.3828 209° Southwest 316 364 17,400 3,500 Climbing Boston Center
Mon 01:59:55 PM 44.2197 -73.4164 195° South 321 369 20,000 1,300 Climbing Boston Center
Mon 02:00:00 PM 43.9745 -73.3307 194° South  Level FlightAware
Mon 02:00:55 PM 44.1153 -73.4436 191° South 358 412 20,000  Level Boston Center
Mon 02:01:00 PM 43.8759 -73.3664 196° South  Level FlightAware
Mon 02:01:55 PM 43.9961 -73.4761 191° South 392 451 20,000  Level Boston Center
Mon 02:02:55 PM 43.8939 -73.5061 192° South 387 445 20,000  Level Boston Center
Mon 02:03:55 PM 43.8078 -73.5678 207° Southwest 362 417 20,000  Level Boston Center
Mon 02:04:55 PM 43.7361 -73.6411 216° Southwest 338 389 20,000  Level Boston Center
Mon 02:05:55 PM 43.6794 -73.6975 216° Southwest 324 373 20,000  Level Boston Center
Mon 02:06:55 PM 43.5853 -73.7300 194° South 310 357 20,000  Level Boston Center
Mon 02:07:55 PM 43.4933 -73.7394 184° South 310 357 20,000  Level Boston Center
Mon 02:08:55 PM 43.3911 -73.7486 184° South 338 389 20,000  Level Boston Center
Mon 02:09:55 PM 43.2953 -73.7439 178° South 343 395 20,000  Level Boston Center
Mon 02:10:55 PM 43.2142 -73.7278 172° South 348 400 20,000  Level Boston Center
Mon 02:11:55 PM 43.1122 -73.7086 172° South 348 400 20,000  Level Boston Center
Mon 02:12:55 PM 43.0228 -73.7153 183° South 338 389 20,000 -300 Level Boston Center
Mon 02:13:55 PM 42.9267 -73.7244 184° South 333 383 19,400 -750 Descending Boston Center
Mon 02:14:55 PM 42.8328 -73.7397 187° South 359 413 18,500 -1,000 Descending Boston Center
Mon 02:15:55 PM 42.7286 -73.7431 181° South 371 427 17,400 -1,050 Descending Boston Center
Mon 02:16:55 PM 42.6244 -73.7297 175° South 371 427 16,400 -1,000 Descending Boston Center
Mon 02:17:55 PM 42.5164 -73.7106 173° South 390 449 15,400 -1,050 Descending Boston Center
Mon 02:18:55 PM 42.3997 -73.6939 174° South 390 449 14,300 -900 Descending Boston Center
Mon 02:19:55 PM 42.3122 -73.6839 175° South 380 437 13,600 -850 Descending Boston Center
Mon 02:20:55 PM 42.2167 -73.6708 174° South 362 417 12,600 -800 Descending Boston Center
Mon 02:21:55 PM 42.1189 -73.6547 173° South 357 411 12,000 -300 Descending Boston Center
Mon 02:22:55 PM 42.0064 -73.6358 173° South 363 418 12,000  Level Boston Center
Mon 02:23:55 PM 41.9150 -73.6231 174° South 369 425 12,000 -350 Level Boston Center
Mon 02:24:55 PM 41.8044 -73.6069 174° South 364 419 11,300 -1,100 Descending Boston Center
Mon 02:25:55 PM 41.7214 -73.5778 165° South 345 397 9,800 -1,700 Descending Boston Center
Mon 02:26:55 PM 41.6428 -73.5400 160° South 311 358 7,900 -1,470 Descending Boston Center
Mon 02:29:15 PM 41.4833 -73.4167 150° Southeast 292 336 4,900 -1,140 Descending New TRACON
Mon 02:30:15 PM 41.4667 -73.3167 103° East 282 325 4,100 -400 Descending New TRACON
Mon 02:31:15 PM 41.4333 -73.2167 114° Southeast 283 326 4,100 -50 Level New TRACON
Mon 02:32:15 PM 41.4167 -73.1167 102° East 283 326 4,000 -500 Descending New TRACON
Mon 02:33:15 PM 41.3833 -73.0167 114° Southeast 271 312 3,100 -500 Descending New TRACON
Mon 02:34:15 PM 41.3667 -72.9333 105° East 237 273 3,000 -700 Descending New TRACON
Mon 02:35:15 PM 41.3500 -72.8833 114° Southeast 167 192 1,700 -1,000 Descending New TRACON
Mon 02:36:15 PM 41.3000 -72.8833 180° South 123 142 1,000 -400 Descending New TRACON
Mon 02:37:15 PM 41.2833 -72.8833 180° South 121 139 900 -100 Descending New TRACON

Login

Don't have an account? Register now (free) for customized features, flight alerts, and more!